WetterOnline ( https://www.wetteronline.de )

Wetter aktuell Mühlhausen/Thüringen

Aktuelles Wetter: Eisenach (312m)

6-stündlich | Neueste Meldungen
Ortszeit Temperatur Wetter
Do, 02.02. 7:00 3.7° C bewölkt
Do, 02.02. 1:00 2.7° C bewölkt
Mi, 01.02. 19:00 4.7° C leichter Regen
Mi, 01.02. 13:00 4.7° C bewölkt
Mi, 01.02. 7:00 3.6° C bewölkt
Mi, 01.02. 1:00 3.2° C leicht bewölkt
Di, 31.01. 19:00 3.1° C Regen
Di, 31.01. 13:00 3.3° C Sprühregen
Ortszeit Temperatur Wetter
Do, 02.02. 8:00 3.8° C leichter Regen
Do, 02.02. 7:50 3.8° C leichter Regen
Do, 02.02. 7:40 3.6° C leicht bewölkt
Do, 02.02. 7:30 3.3° C wolkig
Do, 02.02. 7:20 3.3° C wolkig
Do, 02.02. 7:10 3.5° C bewölkt
Do, 02.02. 7:00 3.7° C bewölkt
Do, 02.02. 6:30 4.0° C wolkig
Do, 02.02. 6:00 3.6° C wolkig
Do, 02.02. 5:30 3.7° C wolkig
Do, 02.02. 5:00 3.5° C leicht bewölkt
Ortszeit Relative Feuchte Sichtweite
Do, 02.02. 7:00 77% 45 km
Do, 02.02. 1:00 87% 55 km
Mi, 01.02. 19:00 78% 14 km
Mi, 01.02. 13:00 76% 40 km
Mi, 01.02. 7:00 80% 30 km
Mi, 01.02. 1:00 84% 40 km
Di, 31.01. 19:00 92% 10 km
Di, 31.01. 13:00 78% 22 km
Ortszeit Relative Feuchte Sichtweite
Do, 02.02. 8:00 77% 22 km
Do, 02.02. 7:50 77% -
Do, 02.02. 7:40 80% -
Do, 02.02. 7:30 81% 45 km
Do, 02.02. 7:20 81% -
Do, 02.02. 7:10 79% -
Do, 02.02. 7:00 77% 45 km
Do, 02.02. 6:30 75% 50 km
Do, 02.02. 6:00 76% 40 km
Do, 02.02. 5:30 73% 45 km
Do, 02.02. 5:00 74% 45 km
Ortszeit Niederschlagsmenge Niederschlagsart
Do, 02.02. 7:00 3 l/m2 in 12 Std. -
Do, 02.02. 1:00 3 l/m2 in 6 Std. Regen
Mi, 01.02. 19:00 0.8 l/m2 in 12 Std. Regen
Mi, 01.02. 13:00 0.2 l/m2 in 6 Std. Regen
Mi, 01.02. 7:00 2 l/m2 in 12 Std. Regen
Mi, 01.02. 1:00 2 l/m2 in 6 Std. Regen
Di, 31.01. 19:00 0.6 l/m2 in 12 Std. Regen
Di, 31.01. 13:00 0.1 l/m2 in 6 Std. Regen
Ortszeit Niederschlagsmenge Niederschlagsart
Do, 02.02. 8:00 <0.05 l/m2 in 1 Std. Regen
Do, 02.02. 7:50 keine Meldung -
Do, 02.02. 7:40 keine Meldung -
Do, 02.02. 7:30 0.0 l/m2 in 30 Min -
Do, 02.02. 7:20 keine Meldung -
Do, 02.02. 7:10 keine Meldung -
Do, 02.02. 7:00 0.0 l/m2 in 1 Std. -
Do, 02.02. 6:30 0.0 l/m2 in 30 Min -
Do, 02.02. 6:00 0.0 l/m2 in 1 Std. -
Do, 02.02. 5:30 0.0 l/m2 in 30 Min -
Do, 02.02. 5:00 0.0 l/m2 in 1 Std. -
Ortszeit Stärke Spitze Richtung
km/h Bft. km/h Grad Sektor
Do, 02.02. 7:00 11 2 54 270° W
Do, 02.02. 1:00 18 3 47 280° W
Mi, 01.02. 19:00 29 5 65 280° W
Mi, 01.02. 13:00 22 4 54 270° W
Mi, 01.02. 7:00 24 4 43 250° W
Mi, 01.02. 1:00 22 4 43 250° W
Di, 31.01. 19:00 22 4 54 260° W
Di, 31.01. 13:00 31 5 50 260° W
Ortszeit Stärke Spitze Richtung
km/h Bft. km/h Grad Sektor
Do, 02.02. 8:00 13 3 31 290° W
Do, 02.02. 7:50 13 3 - 290° W
Do, 02.02. 7:40 11 2 - 280° W
Do, 02.02. 7:30 9 2 20 250° W
Do, 02.02. 7:20 9 2 - 250° W
Do, 02.02. 7:10 11 2 - 260° W
Do, 02.02. 7:00 11 2 32 270° W
Do, 02.02. 6:30 18 3 32 280° W
Do, 02.02. 6:00 18 3 43 290° W
Do, 02.02. 5:30 24 4 43 300° NW
Do, 02.02. 5:00 22 4 54 300° NW
Ortszeit Untergrenze Bedeckung Gattung
total tief tief mittel hoch
Do, 02.02. 7:00 810 m 7/8 7/8 - - -
Do, 02.02. 1:00 690 m 7/8 7/8 - - -
Mi, 01.02. 19:00 630 m 7/8 7/8 - - -
Mi, 01.02. 13:00 630 m 7/8 7/8 - - -
Mi, 01.02. 7:00 1020 m 7/8 7/8 - - -
Mi, 01.02. 1:00 1020 m 4/8 4/8 - - -
Di, 31.01. 19:00 300 m 7/8 7/8 - - -
Di, 31.01. 13:00 510 m 7/8 7/8 - - -
Ortszeit Bedeckungsgrad in Achtel und Wolkenuntergrenze
Do, 02.02. 8:00 3(690m) 5(1050m) 6(2100m)
Do, 02.02. 7:50 3(690m) 5(1050m) 6(2100m)
Do, 02.02. 7:40 4
Do, 02.02. 7:30 2(750m) 3(900m) 5(1800m)
Do, 02.02. 7:20 2(750m) 3(900m) 5(1800m)
Do, 02.02. 7:10 7
Do, 02.02. 7:00 3(810m) 4(990m) 7(2100m)
Do, 02.02. 6:30 5(930m) 5(1140m)
Do, 02.02. 6:00 6(1020m) 6(5400m) 6(6600m)
Do, 02.02. 5:30 2(930m) 6(7500m) 6(9000m)
Do, 02.02. 5:00 2(870m) 5(4200m) 5(8400m)
Ortszeit Luftdruck NN (hPa) Tendenz (hPa in 3 Std.)
Do, 02.02. 7:00 1020 + 1,5
Do, 02.02. 1:00 1018 + 0,6
Mi, 01.02. 19:00 1016 + 1,0
Mi, 01.02. 13:00 1017 - 0,3
Mi, 01.02. 7:00 1016 - 1,5
Mi, 01.02. 1:00 1019 - 0,2
Di, 31.01. 19:00 1019 + 0,5
Di, 31.01. 13:00 1020 - 2,4
Ortszeit Luftdruck NN (hPa) Tendenz (hPa in 3 Std.)
Do, 02.02. 8:00 1020 + 1,5
Do, 02.02. 7:50 1020 keine Meldung
Do, 02.02. 7:40 1020 keine Meldung
Do, 02.02. 7:30 1020 + 1,7
Do, 02.02. 7:20 1020 keine Meldung
Do, 02.02. 7:10 1020 keine Meldung
Do, 02.02. 7:00 1020 + 1,5
Do, 02.02. 6:30 1019 + 1,6
Do, 02.02. 6:00 1019 + 1,6
Do, 02.02. 5:30 1019 + 1,4
Do, 02.02. 5:00 1019 + 1,1
Ortszeit Schneehöhe (cm)
Do, 02.02. 7:00 0
Do, 02.02. 1:00 0
Mi, 01.02. 19:00 0
Mi, 01.02. 13:00 0
Mi, 01.02. 7:00 0
Mi, 01.02. 1:00 0
Di, 31.01. 19:00 0
Di, 31.01. 13:00 0
Ortszeit Schneehöhe (cm)
Do, 02.02. 8:00 0
Do, 02.02. 7:50 0
Do, 02.02. 7:40 0
Do, 02.02. 7:30 0
Do, 02.02. 7:20 0
Do, 02.02. 7:10 0
Do, 02.02. 7:00 0
Do, 02.02. 6:30 0
Do, 02.02. 6:00 0
Do, 02.02. 5:30 0
Do, 02.02. 5:00 0
Link zu dieser Seite / Seite empfehlen

Das Wetter in ...